sensor_id;sensor_type;location;lat;lon;timestamp;P1;durP1;ratioP1;P2;durP2;ratioP2
74644;SDS011;63163;55.630;37.594;2024-01-25T00:00:30;19.000000;;;10.400000;;
74644;SDS011;63163;55.630;37.594;2024-01-25T00:01:30;17.600000;;;11.100000;;
74644;SDS011;63163;55.630;37.594;2024-01-25T00:02:31;18.799999;;;9.700000;;
74644;SDS011;63163;55.630;37.594;2024-01-25T00:03:31;19.299999;;;11.400000;;
74644;SDS011;63163;55.630;37.594;2024-01-25T00:04:32;19.700001;;;12.200000;;
74644;SDS011;63163;55.630;37.594;2024-01-25T00:05:32;19.000000;;;11.500000;;
74644;SDS011;63163;55.630;37.594;2024-01-25T00:06:33;19.500000;;;11.100000;;
74644;SDS011;63163;55.630;37.594;2024-01-25T00:07:33;19.100000;;;10.400000;;
74644;SDS011;63163;55.630;37.594;2024-01-25T00:08:34;18.400000;;;10.800000;;
74644;SDS011;63163;55.630;37.594;2024-01-25T00:09:35;22.100000;;;12.300000;;
74644;SDS011;63163;55.630;37.594;2024-01-25T00:10:35;17.100000;;;10.200000;;
74644;SDS011;63163;55.630;37.594;2024-01-25T00:11:36;18.600000;;;11.300000;;
74644;SDS011;63163;55.630;37.594;2024-01-25T00:12:36;17.400000;;;10.100000;;
74644;SDS011;63163;55.630;37.594;2024-01-25T00:13:37;15.700000;;;10.200000;;
74644;SDS011;63163;55.630;37.594;2024-01-25T00:14:38;16.799999;;;10.300000;;
74644;SDS011;63163;55.630;37.594;2024-01-25T00:15:39;17.299999;;;10.200000;;
74644;SDS011;63163;55.630;37.594;2024-01-25T00:16:40;20.000000;;;11.300000;;
74644;SDS011;63163;55.630;37.594;2024-01-25T00:17:41;19.100000;;;10.100000;;
74644;SDS011;63163;55.630;37.594;2024-01-25T00:18:42;17.900000;;;10.000000;;
74644;SDS011;63163;55.630;37.594;2024-01-25T00:19:42;21.000000;;;10.700000;;
74644;SDS011;63163;55.630;37.594;2024-01-25T00:20:43;18.700001;;;10.900000;;
74644;SDS011;63163;55.630;37.594;2024-01-25T00:21:44;17.600000;;;10.600000;;
74644;SDS011;63163;55.630;37.594;2024-01-25T00:22:45;17.299999;;;10.400000;;
74644;SDS011;63163;55.630;37.594;2024-01-25T00:23:45;19.500000;;;11.200000;;
74644;SDS011;63163;55.630;37.594;2024-01-25T00:24:46;14.400000;;;9.300000;;
74644;SDS011;63163;55.630;37.594;2024-01-25T00:25:46;21.100000;;;11.400000;;
74644;SDS011;63163;55.630;37.594;2024-01-25T00:26:47;22.500000;;;13.700000;;
74644;SDS011;63163;55.630;37.594;2024-01-25T00:27:47;15.700000;;;10.400000;;
74644;SDS011;63163;55.630;37.594;2024-01-25T00:28:48;17.400000;;;10.500000;;
74644;SDS011;63163;55.630;37.594;2024-01-25T00:29:48;18.900000;;;10.600000;;
74644;SDS011;63163;55.630;37.594;2024-01-25T00:30:49;17.500000;;;10.000000;;
74644;SDS011;63163;55.630;37.594;2024-01-25T00:31:49;15.900000;;;9.400000;;
74644;SDS011;63163;55.630;37.594;2024-01-25T00:32:50;18.700001;;;11.300000;;
74644;SDS011;63163;55.630;37.594;2024-01-25T00:33:50;18.700001;;;11.500000;;
74644;SDS011;63163;55.630;37.594;2024-01-25T00:34:51;17.400000;;;11.900000;;
74644;SDS011;63163;55.630;37.594;2024-01-25T00:35:52;16.799999;;;10.000000;;
74644;SDS011;63163;55.630;37.594;2024-01-25T00:36:53;15.400000;;;8.800000;;
74644;SDS011;63163;55.630;37.594;2024-01-25T00:37:54;19.000000;;;10.300000;;
74644;SDS011;63163;55.630;37.594;2024-01-25T00:38:55;19.299999;;;10.700000;;
74644;SDS011;63163;55.630;37.594;2024-01-25T00:39:56;17.900000;;;10.100000;;
74644;SDS011;63163;55.630;37.594;2024-01-25T00:40:57;18.900000;;;10.600000;;
74644;SDS011;63163;55.630;37.594;2024-01-25T00:41:58;19.700001;;;10.400000;;
74644;SDS011;63163;55.630;37.594;2024-01-25T00:43:03;17.500000;;;10.400000;;
74644;SDS011;63163;55.630;37.594;2024-01-25T00:44:04;17.000000;;;9.900000;;
74644;SDS011;63163;55.630;37.594;2024-01-25T00:45:06;17.200001;;;11.000000;;
74644;SDS011;63163;55.630;37.594;2024-01-25T00:46:07;24.299999;;;15.600000;;
74644;SDS011;63163;55.630;37.594;2024-01-25T00:47:08;20.299999;;;12.400000;;
74644;SDS011;63163;55.630;37.594;2024-01-25T00:48:09;23.200001;;;14.200000;;
74644;SDS011;63163;55.630;37.594;2024-01-25T00:49:10;18.400000;;;10.700000;;
74644;SDS011;63163;55.630;37.594;2024-01-25T00:50:11;18.799999;;;10.500000;;
74644;SDS011;63163;55.630;37.594;2024-01-25T00:51:14;21.200001;;;11.100000;;
74644;SDS011;63163;55.630;37.594;2024-01-25T00:52:15;17.400000;;;10.800000;;
74644;SDS011;63163;55.630;37.594;2024-01-25T00:53:16;17.600000;;;10.700000;;
74644;SDS011;63163;55.630;37.594;2024-01-25T00:54:17;17.100000;;;10.500000;;
74644;SDS011;63163;55.630;37.594;2024-01-25T00:55:18;20.500000;;;11.000000;;
74644;SDS011;63163;55.630;37.594;2024-01-25T00:56:19;20.299999;;;10.700000;;
74644;SDS011;63163;55.630;37.594;2024-01-25T00:57:20;17.700001;;;10.000000;;
74644;SDS011;63163;55.630;37.594;2024-01-25T00:58:20;18.600000;;;10.600000;;
74644;SDS011;63163;55.630;37.594;2024-01-25T00:59:21;19.500000;;;10.700000;;
74644;SDS011;63163;55.630;37.594;2024-01-25T01:00:22;18.299999;;;10.000000;;
74644;SDS011;63163;55.630;37.594;2024-01-25T01:01:23;16.400000;;;9.100000;;
74644;SDS011;63163;55.630;37.594;2024-01-25T01:02:25;15.200000;;;9.800000;;
74644;SDS011;63163;55.630;37.594;2024-01-25T01:03:30;19.000000;;;10.400000;;
74644;SDS011;63163;55.630;37.594;2024-01-25T01:04:31;18.600000;;;9.800000;;
74644;SDS011;63163;55.630;37.594;2024-01-25T01:05:32;18.700001;;;11.100000;;
74644;SDS011;63163;55.630;37.594;2024-01-25T01:06:33;16.000000;;;10.200000;;
74644;SDS011;63163;55.630;37.594;2024-01-25T01:07:34;15.200000;;;9.400000;;
74644;SDS011;63163;55.630;37.594;2024-01-25T01:08:35;18.400000;;;10.500000;;
74644;SDS011;63163;55.630;37.594;2024-01-25T01:09:36;18.700001;;;9.700000;;
74644;SDS011;63163;55.630;37.594;2024-01-25T01:10:36;15.300000;;;9.000000;;
74644;SDS011;63163;55.630;37.594;2024-01-25T01:11:37;19.100000;;;9.800000;;
74644;SDS011;63163;55.630;37.594;2024-01-25T01:12:37;18.600000;;;11.300000;;
74644;SDS011;63163;55.630;37.594;2024-01-25T01:13:38;17.500000;;;10.600000;;
74644;SDS011;63163;55.630;37.594;2024-01-25T01:14:38;19.200001;;;12.600000;;
74644;SDS011;63163;55.630;37.594;2024-01-25T01:15:39;18.400000;;;10.800000;;
74644;SDS011;63163;55.630;37.594;2024-01-25T01:16:39;18.000000;;;11.700000;;
74644;SDS011;63163;55.630;37.594;2024-01-25T01:17:40;19.200001;;;11.900000;;
74644;SDS011;63163;55.630;37.594;2024-01-25T01:18:40;17.200001;;;10.600000;;
74644;SDS011;63163;55.630;37.594;2024-01-25T01:19:41;18.299999;;;11.600000;;
74644;SDS011;63163;55.630;37.594;2024-01-25T01:20:42;19.200001;;;9.800000;;
74644;SDS011;63163;55.630;37.594;2024-01-25T01:21:42;18.100000;;;11.600000;;
74644;SDS011;63163;55.630;37.594;2024-01-25T01:22:44;18.000000;;;9.900000;;
74644;SDS011;63163;55.630;37.594;2024-01-25T01:23:44;17.400000;;;10.300000;;
74644;SDS011;63163;55.630;37.594;2024-01-25T01:24:45;18.000000;;;10.800000;;
74644;SDS011;63163;55.630;37.594;2024-01-25T01:25:45;22.799999;;;11.500000;;
74644;SDS011;63163;55.630;37.594;2024-01-25T01:26:46;18.799999;;;10.200000;;
74644;SDS011;63163;55.630;37.594;2024-01-25T01:27:47;18.700001;;;10.400000;;
74644;SDS011;63163;55.630;37.594;2024-01-25T01:28:47;16.500000;;;10.300000;;
74644;SDS011;63163;55.630;37.594;2024-01-25T01:29:47;17.700001;;;10.300000;;
74644;SDS011;63163;55.630;37.594;2024-01-25T01:30:48;16.299999;;;9.500000;;
74644;SDS011;63163;55.630;37.594;2024-01-25T01:31:49;16.700001;;;9.200000;;
74644;SDS011;63163;55.630;37.594;2024-01-25T01:32:49;17.000000;;;9.700000;;
74644;SDS011;63163;55.630;37.594;2024-01-25T01:33:50;16.600000;;;10.400000;;
74644;SDS011;63163;55.630;37.594;2024-01-25T01:34:51;15.500000;;;9.200000;;
74644;SDS011;63163;55.630;37.594;2024-01-25T01:35:51;15.600000;;;8.900000;;
74644;SDS011;63163;55.630;37.594;2024-01-25T01:36:52;18.000000;;;9.700000;;
74644;SDS011;63163;55.630;37.594;2024-01-25T01:37:53;17.200001;;;10.000000;;
74644;SDS011;63163;55.630;37.594;2024-01-25T01:38:53;15.100000;;;9.100000;;
74644;SDS011;63163;55.630;37.594;2024-01-25T01:39:53;17.299999;;;9.600000;;
74644;SDS011;63163;55.630;37.594;2024-01-25T01:40:55;16.900000;;;9.500000;;
74644;SDS011;63163;55.630;37.594;2024-01-25T01:41:56;17.100000;;;11.100000;;
74644;SDS011;63163;55.630;37.594;2024-01-25T01:43:00;16.000000;;;9.300000;;
74644;SDS011;63163;55.630;37.594;2024-01-25T01:44:01;17.100000;;;9.600000;;
74644;SDS011;63163;55.630;37.594;2024-01-25T01:45:01;14.900000;;;9.600000;;
74644;SDS011;63163;55.630;37.594;2024-01-25T01:46:04;18.000000;;;9.600000;;
74644;SDS011;63163;55.630;37.594;2024-01-25T01:47:05;15.400000;;;9.300000;;
74644;SDS011;63163;55.630;37.594;2024-01-25T01:48:06;14.700000;;;8.300000;;
74644;SDS011;63163;55.630;37.594;2024-01-25T01:49:07;15.700000;;;9.500000;;
74644;SDS011;63163;55.630;37.594;2024-01-25T01:50:09;12.600000;;;8.800000;;
74644;SDS011;63163;55.630;37.594;2024-01-25T01:51:09;13.800000;;;8.900000;;
74644;SDS011;63163;55.630;37.594;2024-01-25T01:52:10;15.000000;;;8.600000;;
74644;SDS011;63163;55.630;37.594;2024-01-25T01:53:11;15.100000;;;9.700000;;
74644;SDS011;63163;55.630;37.594;2024-01-25T01:54:11;14.800000;;;10.800000;;
74644;SDS011;63163;55.630;37.594;2024-01-25T01:55:12;14.200000;;;8.800000;;
74644;SDS011;63163;55.630;37.594;2024-01-25T01:56:13;13.600000;;;8.500000;;
74644;SDS011;63163;55.630;37.594;2024-01-25T01:57:14;13.200000;;;8.200000;;
74644;SDS011;63163;55.630;37.594;2024-01-25T01:58:15;13.000000;;;8.100000;;
74644;SDS011;63163;55.630;37.594;2024-01-25T01:59:15;14.600000;;;11.300000;;
74644;SDS011;63163;55.630;37.594;2024-01-25T02:00:16;12.200000;;;8.300000;;
74644;SDS011;63163;55.630;37.594;2024-01-25T02:01:17;14.100000;;;8.900000;;
74644;SDS011;63163;55.630;37.594;2024-01-25T02:02:18;13.300000;;;8.400000;;
74644;SDS011;63163;55.630;37.594;2024-01-25T02:03:19;12.600000;;;8.300000;;
74644;SDS011;63163;55.630;37.594;2024-01-25T02:04:19;16.200001;;;8.600000;;
74644;SDS011;63163;55.630;37.594;2024-01-25T02:05:20;14.600000;;;8.100000;;
74644;SDS011;63163;55.630;37.594;2024-01-25T02:06:20;13.500000;;;8.100000;;
74644;SDS011;63163;55.630;37.594;2024-01-25T02:07:21;15.200000;;;9.300000;;
74644;SDS011;63163;55.630;37.594;2024-01-25T02:08:22;13.200000;;;8.700000;;
74644;SDS011;63163;55.630;37.594;2024-01-25T02:09:22;14.400000;;;8.900000;;
74644;SDS011;63163;55.630;37.594;2024-01-25T02:10:23;15.200000;;;9.100000;;
74644;SDS011;63163;55.630;37.594;2024-01-25T02:11:24;15.600000;;;9.600000;;
74644;SDS011;63163;55.630;37.594;2024-01-25T02:12:24;13.300000;;;8.500000;;
74644;SDS011;63163;55.630;37.594;2024-01-25T02:13:25;14.300000;;;8.400000;;
74644;SDS011;63163;55.630;37.594;2024-01-25T02:14:26;13.100000;;;8.900000;;
74644;SDS011;63163;55.630;37.594;2024-01-25T02:15:27;14.100000;;;8.700000;;
74644;SDS011;63163;55.630;37.594;2024-01-25T02:16:27;12.400000;;;7.800000;;
74644;SDS011;63163;55.630;37.594;2024-01-25T02:17:27;12.400000;;;7.800000;;
74644;SDS011;63163;55.630;37.594;2024-01-25T02:18:29;14.200000;;;9.600000;;
74644;SDS011;63163;55.630;37.594;2024-01-25T02:19:30;13.800000;;;8.800000;;
74644;SDS011;63163;55.630;37.594;2024-01-25T02:20:31;15.900000;;;8.400000;;
74644;SDS011;63163;55.630;37.594;2024-01-25T02:21:31;14.900000;;;9.200000;;
74644;SDS011;63163;55.630;37.594;2024-01-25T02:22:32;14.600000;;;8.400000;;
74644;SDS011;63163;55.630;37.594;2024-01-25T02:23:33;13.900000;;;8.400000;;
74644;SDS011;63163;55.630;37.594;2024-01-25T02:24:33;12.800000;;;7.600000;;
74644;SDS011;63163;55.630;37.594;2024-01-25T02:25:33;14.700000;;;8.300000;;
74644;SDS011;63163;55.630;37.594;2024-01-25T02:26:34;11.700000;;;8.000000;;
74644;SDS011;63163;55.630;37.594;2024-01-25T02:27:35;13.100000;;;7.700000;;
74644;SDS011;63163;55.630;37.594;2024-01-25T02:28:38;13.400000;;;8.200000;;
74644;SDS011;63163;55.630;37.594;2024-01-25T02:29:39;11.500000;;;8.700000;;
74644;SDS011;63163;55.630;37.594;2024-01-25T02:30:39;10.600000;;;6.800000;;
74644;SDS011;63163;55.630;37.594;2024-01-25T02:31:40;10.500000;;;7.200000;;
74644;SDS011;63163;55.630;37.594;2024-01-25T02:32:42;13.700000;;;8.600000;;
74644;SDS011;63163;55.630;37.594;2024-01-25T02:33:42;12.900000;;;7.800000;;
74644;SDS011;63163;55.630;37.594;2024-01-25T02:34:43;13.200000;;;8.600000;;
74644;SDS011;63163;55.630;37.594;2024-01-25T02:35:44;11.800000;;;7.600000;;
74644;SDS011;63163;55.630;37.594;2024-01-25T02:36:44;14.600000;;;8.900000;;
74644;SDS011;63163;55.630;37.594;2024-01-25T02:37:44;14.600000;;;9.400000;;
74644;SDS011;63163;55.630;37.594;2024-01-25T02:38:45;13.600000;;;8.600000;;
74644;SDS011;63163;55.630;37.594;2024-01-25T02:39:46;13.400000;;;9.000000;;
74644;SDS011;63163;55.630;37.594;2024-01-25T02:40:46;13.500000;;;7.900000;;
74644;SDS011;63163;55.630;37.594;2024-01-25T02:41:47;15.500000;;;8.200000;;
74644;SDS011;63163;55.630;37.594;2024-01-25T02:42:47;11.900000;;;8.000000;;
74644;SDS011;63163;55.630;37.594;2024-01-25T02:43:48;14.900000;;;8.900000;;
74644;SDS011;63163;55.630;37.594;2024-01-25T02:44:48;14.500000;;;8.300000;;
74644;SDS011;63163;55.630;37.594;2024-01-25T02:45:49;13.900000;;;8.200000;;
74644;SDS011;63163;55.630;37.594;2024-01-25T02:46:49;13.900000;;;8.100000;;
74644;SDS011;63163;55.630;37.594;2024-01-25T02:47:50;14.400000;;;7.800000;;
74644;SDS011;63163;55.630;37.594;2024-01-25T02:48:51;14.300000;;;8.800000;;
74644;SDS011;63163;55.630;37.594;2024-01-25T02:49:51;14.700000;;;8.400000;;
74644;SDS011;63163;55.630;37.594;2024-01-25T02:50:52;13.800000;;;8.500000;;
74644;SDS011;63163;55.630;37.594;2024-01-25T02:51:52;15.000000;;;8.900000;;
74644;SDS011;63163;55.630;37.594;2024-01-25T02:52:53;14.200000;;;8.400000;;
74644;SDS011;63163;55.630;37.594;2024-01-25T02:53:53;11.900000;;;7.900000;;
74644;SDS011;63163;55.630;37.594;2024-01-25T02:54:54;12.400000;;;8.500000;;
74644;SDS011;63163;55.630;37.594;2024-01-25T02:55:54;13.300000;;;8.600000;;
74644;SDS011;63163;55.630;37.594;2024-01-25T02:56:54;13.600000;;;9.100000;;
74644;SDS011;63163;55.630;37.594;2024-01-25T02:57:55;12.700000;;;8.100000;;
74644;SDS011;63163;55.630;37.594;2024-01-25T02:58:56;12.400000;;;7.800000;;
74644;SDS011;63163;55.630;37.594;2024-01-25T02:59:56;13.400000;;;8.800000;;
74644;SDS011;63163;55.630;37.594;2024-01-25T03:00:57;14.800000;;;8.700000;;
74644;SDS011;63163;55.630;37.594;2024-01-25T03:01:57;15.600000;;;9.700000;;
74644;SDS011;63163;55.630;37.594;2024-01-25T03:02:58;12.100000;;;8.000000;;
74644;SDS011;63163;55.630;37.594;2024-01-25T03:03:58;16.600000;;;8.300000;;
74644;SDS011;63163;55.630;37.594;2024-01-25T03:04:59;13.000000;;;8.400000;;
74644;SDS011;63163;55.630;37.594;2024-01-25T03:05:59;12.500000;;;8.300000;;
74644;SDS011;63163;55.630;37.594;2024-01-25T03:07:00;15.600000;;;9.600000;;
74644;SDS011;63163;55.630;37.594;2024-01-25T03:08:01;11.900000;;;7.700000;;
74644;SDS011;63163;55.630;37.594;2024-01-25T03:09:01;13.100000;;;8.000000;;
74644;SDS011;63163;55.630;37.594;2024-01-25T03:10:05;12.500000;;;7.100000;;
74644;SDS011;63163;55.630;37.594;2024-01-25T03:11:05;12.900000;;;7.700000;;
74644;SDS011;63163;55.630;37.594;2024-01-25T03:12:06;13.800000;;;8.300000;;
74644;SDS011;63163;55.630;37.594;2024-01-25T03:13:07;14.600000;;;8.500000;;
74644;SDS011;63163;55.630;37.594;2024-01-25T03:14:07;11.000000;;;7.500000;;
74644;SDS011;63163;55.630;37.594;2024-01-25T03:15:09;12.000000;;;7.100000;;
74644;SDS011;63163;55.630;37.594;2024-01-25T03:16:10;10.800000;;;7.600000;;
74644;SDS011;63163;55.630;37.594;2024-01-25T03:17:10;11.900000;;;7.900000;;
74644;SDS011;63163;55.630;37.594;2024-01-25T03:18:12;10.700000;;;7.600000;;
74644;SDS011;63163;55.630;37.594;2024-01-25T03:19:13;10.400000;;;6.700000;;
74644;SDS011;63163;55.630;37.594;2024-01-25T03:20:13;13.700000;;;7.700000;;
74644;SDS011;63163;55.630;37.594;2024-01-25T03:21:14;11.800000;;;7.300000;;
74644;SDS011;63163;55.630;37.594;2024-01-25T03:22:15;12.700000;;;8.000000;;
74644;SDS011;63163;55.630;37.594;2024-01-25T03:23:15;11.500000;;;7.300000;;
74644;SDS011;63163;55.630;37.594;2024-01-25T03:24:16;11.600000;;;7.100000;;
74644;SDS011;63163;55.630;37.594;2024-01-25T03:25:16;9.900000;;;6.700000;;
74644;SDS011;63163;55.630;37.594;2024-01-25T03:26:17;12.600000;;;7.000000;;
74644;SDS011;63163;55.630;37.594;2024-01-25T03:27:17;10.500000;;;7.100000;;
74644;SDS011;63163;55.630;37.594;2024-01-25T03:28:17;10.700000;;;7.900000;;
74644;SDS011;63163;55.630;37.594;2024-01-25T03:29:19;12.200000;;;7.800000;;
74644;SDS011;63163;55.630;37.594;2024-01-25T03:30:19;9.900000;;;6.800000;;
74644;SDS011;63163;55.630;37.594;2024-01-25T03:31:19;10.900000;;;6.800000;;
74644;SDS011;63163;55.630;37.594;2024-01-25T03:32:20;12.300000;;;7.000000;;
74644;SDS011;63163;55.630;37.594;2024-01-25T03:33:20;11.800000;;;7.500000;;
74644;SDS011;63163;55.630;37.594;2024-01-25T03:34:22;11.200000;;;7.700000;;
74644;SDS011;63163;55.630;37.594;2024-01-25T03:35:22;10.900000;;;7.400000;;
74644;SDS011;63163;55.630;37.594;2024-01-25T03:36:23;12.200000;;;7.500000;;
74644;SDS011;63163;55.630;37.594;2024-01-25T03:37:23;10.500000;;;7.200000;;
74644;SDS011;63163;55.630;37.594;2024-01-25T03:38:24;13.500000;;;6.900000;;
74644;SDS011;63163;55.630;37.594;2024-01-25T03:39:24;9.800000;;;6.700000;;
74644;SDS011;63163;55.630;37.594;2024-01-25T03:40:25;11.500000;;;7.400000;;
74644;SDS011;63163;55.630;37.594;2024-01-25T03:41:25;11.500000;;;7.300000;;
74644;SDS011;63163;55.630;37.594;2024-01-25T03:42:26;10.800000;;;7.400000;;
74644;SDS011;63163;55.630;37.594;2024-01-25T03:43:26;13.100000;;;8.300000;;
74644;SDS011;63163;55.630;37.594;2024-01-25T03:44:27;10.500000;;;7.100000;;
74644;SDS011;63163;55.630;37.594;2024-01-25T03:45:27;10.800000;;;7.500000;;
74644;SDS011;63163;55.630;37.594;2024-01-25T03:46:28;10.000000;;;7.200000;;
74644;SDS011;63163;55.630;37.594;2024-01-25T03:47:28;11.000000;;;7.800000;;
74644;SDS011;63163;55.630;37.594;2024-01-25T03:48:29;10.700000;;;7.300000;;
74644;SDS011;63163;55.630;37.594;2024-01-25T03:49:30;11.000000;;;7.900000;;
74644;SDS011;63163;55.630;37.594;2024-01-25T03:50:30;11.600000;;;7.500000;;
74644;SDS011;63163;55.630;37.594;2024-01-25T03:51:31;9.700000;;;6.200000;;
74644;SDS011;63163;55.630;37.594;2024-01-25T03:52:32;9.900000;;;6.700000;;
74644;SDS011;63163;55.630;37.594;2024-01-25T03:53:32;10.900000;;;7.600000;;
74644;SDS011;63163;55.630;37.594;2024-01-25T03:54:33;11.600000;;;6.900000;;
74644;SDS011;63163;55.630;37.594;2024-01-25T03:55:33;9.700000;;;6.900000;;
74644;SDS011;63163;55.630;37.594;2024-01-25T03:56:34;12.000000;;;7.400000;;
74644;SDS011;63163;55.630;37.594;2024-01-25T03:57:35;11.000000;;;6.800000;;
74644;SDS011;63163;55.630;37.594;2024-01-25T03:58:36;9.200000;;;6.300000;;
74644;SDS011;63163;55.630;37.594;2024-01-25T03:59:37;12.100000;;;7.500000;;
74644;SDS011;63163;55.630;37.594;2024-01-25T04:00:37;11.400000;;;6.700000;;
74644;SDS011;63163;55.630;37.594;2024-01-25T04:01:42;14.000000;;;8.900000;;
74644;SDS011;63163;55.630;37.594;2024-01-25T04:02:43;10.500000;;;7.400000;;
74644;SDS011;63163;55.630;37.594;2024-01-25T04:03:43;10.500000;;;7.100000;;
74644;SDS011;63163;55.630;37.594;2024-01-25T04:04:44;10.800000;;;7.300000;;
74644;SDS011;63163;55.630;37.594;2024-01-25T04:05:45;9.600000;;;6.600000;;
74644;SDS011;63163;55.630;37.594;2024-01-25T04:06:45;13.400000;;;8.300000;;
74644;SDS011;63163;55.630;37.594;2024-01-25T04:07:47;11.500000;;;7.500000;;
74644;SDS011;63163;55.630;37.594;2024-01-25T04:08:47;11.400000;;;6.800000;;
74644;SDS011;63163;55.630;37.594;2024-01-25T04:09:48;13.200000;;;8.400000;;
74644;SDS011;63163;55.630;37.594;2024-01-25T04:10:50;11.700000;;;7.400000;;
74644;SDS011;63163;55.630;37.594;2024-01-25T04:11:51;9.600000;;;7.000000;;
74644;SDS011;63163;55.630;37.594;2024-01-25T04:12:51;11.500000;;;7.500000;;
74644;SDS011;63163;55.630;37.594;2024-01-25T04:13:52;11.300000;;;7.600000;;
74644;SDS011;63163;55.630;37.594;2024-01-25T04:14:53;12.700000;;;8.000000;;
74644;SDS011;63163;55.630;37.594;2024-01-25T04:15:53;12.500000;;;8.300000;;
74644;SDS011;63163;55.630;37.594;2024-01-25T04:16:54;10.600000;;;7.200000;;
74644;SDS011;63163;55.630;37.594;2024-01-25T04:17:54;10.800000;;;7.400000;;
74644;SDS011;63163;55.630;37.594;2024-01-25T04:18:56;11.200000;;;7.400000;;
74644;SDS011;63163;55.630;37.594;2024-01-25T04:19:56;11.600000;;;7.500000;;
74644;SDS011;63163;55.630;37.594;2024-01-25T04:20:57;8.900000;;;6.800000;;
74644;SDS011;63163;55.630;37.594;2024-01-25T04:21:57;11.000000;;;7.100000;;
74644;SDS011;63163;55.630;37.594;2024-01-25T04:22:58;10.500000;;;7.100000;;
74644;SDS011;63163;55.630;37.594;2024-01-25T04:23:58;12.000000;;;7.600000;;
74644;SDS011;63163;55.630;37.594;2024-01-25T04:24:59;11.300000;;;7.300000;;
74644;SDS011;63163;55.630;37.594;2024-01-25T04:25:59;11.700000;;;10.000000;;
74644;SDS011;63163;55.630;37.594;2024-01-25T04:27:00;9.100000;;;5.900000;;
74644;SDS011;63163;55.630;37.594;2024-01-25T04:28:01;10.800000;;;6.800000;;
74644;SDS011;63163;55.630;37.594;2024-01-25T04:29:02;10.000000;;;7.900000;;
74644;SDS011;63163;55.630;37.594;2024-01-25T04:30:02;12.000000;;;7.600000;;
74644;SDS011;63163;55.630;37.594;2024-01-25T04:31:03;10.900000;;;7.000000;;
74644;SDS011;63163;55.630;37.594;2024-01-25T04:32:05;11.200000;;;7.900000;;
74644;SDS011;63163;55.630;37.594;2024-01-25T04:33:05;11.300000;;;7.600000;;
74644;SDS011;63163;55.630;37.594;2024-01-25T04:34:06;11.400000;;;7.300000;;
74644;SDS011;63163;55.630;37.594;2024-01-25T04:35:07;10.600000;;;7.800000;;
74644;SDS011;63163;55.630;37.594;2024-01-25T04:36:08;10.800000;;;7.300000;;
74644;SDS011;63163;55.630;37.594;2024-01-25T04:37:08;11.000000;;;7.500000;;
74644;SDS011;63163;55.630;37.594;2024-01-25T04:38:09;10.300000;;;6.500000;;
74644;SDS011;63163;55.630;37.594;2024-01-25T04:39:09;12.000000;;;7.200000;;
74644;SDS011;63163;55.630;37.594;2024-01-25T04:40:10;11.100000;;;7.900000;;
74644;SDS011;63163;55.630;37.594;2024-01-25T04:41:11;11.700000;;;7.800000;;
74644;SDS011;63163;55.630;37.594;2024-01-25T04:42:11;10.800000;;;7.800000;;
74644;SDS011;63163;55.630;37.594;2024-01-25T04:43:12;10.100000;;;7.200000;;
74644;SDS011;63163;55.630;37.594;2024-01-25T04:44:13;11.700000;;;7.300000;;
74644;SDS011;63163;55.630;37.594;2024-01-25T04:45:13;10.900000;;;7.800000;;
74644;SDS011;63163;55.630;37.594;2024-01-25T04:46:14;11.100000;;;7.700000;;
74644;SDS011;63163;55.630;37.594;2024-01-25T04:47:14;11.200000;;;7.000000;;
74644;SDS011;63163;55.630;37.594;2024-01-25T04:48:15;10.800000;;;7.300000;;
74644;SDS011;63163;55.630;37.594;2024-01-25T04:49:16;10.400000;;;7.000000;;
74644;SDS011;63163;55.630;37.594;2024-01-25T04:50:16;8.900000;;;6.000000;;
74644;SDS011;63163;55.630;37.594;2024-01-25T04:51:17;10.900000;;;6.400000;;
74644;SDS011;63163;55.630;37.594;2024-01-25T04:52:18;9.900000;;;6.500000;;
74644;SDS011;63163;55.630;37.594;2024-01-25T04:53:18;11.200000;;;7.400000;;
74644;SDS011;63163;55.630;37.594;2024-01-25T04:54:19;10.900000;;;7.100000;;
74644;SDS011;63163;55.630;37.594;2024-01-25T04:55:19;10.100000;;;7.200000;;
74644;SDS011;63163;55.630;37.594;2024-01-25T04:56:20;9.800000;;;6.800000;;
74644;SDS011;63163;55.630;37.594;2024-01-25T04:57:20;10.400000;;;7.100000;;
74644;SDS011;63163;55.630;37.594;2024-01-25T04:58:21;11.700000;;;7.700000;;
74644;SDS011;63163;55.630;37.594;2024-01-25T04:59:21;12.900000;;;8.500000;;
74644;SDS011;63163;55.630;37.594;2024-01-25T05:00:22;13.200000;;;8.000000;;
74644;SDS011;63163;55.630;37.594;2024-01-25T05:01:23;9.800000;;;6.700000;;
74644;SDS011;63163;55.630;37.594;2024-01-25T05:02:24;9.900000;;;7.700000;;
74644;SDS011;63163;55.630;37.594;2024-01-25T05:03:24;9.500000;;;6.700000;;
74644;SDS011;63163;55.630;37.594;2024-01-25T05:04:25;12.200000;;;6.900000;;
74644;SDS011;63163;55.630;37.594;2024-01-25T05:05:25;10.400000;;;7.600000;;
74644;SDS011;63163;55.630;37.594;2024-01-25T05:06:26;10.500000;;;7.600000;;
74644;SDS011;63163;55.630;37.594;2024-01-25T05:07:26;11.000000;;;7.400000;;
74644;SDS011;63163;55.630;37.594;2024-01-25T05:08:27;11.200000;;;7.800000;;
74644;SDS011;63163;55.630;37.594;2024-01-25T05:09:27;11.200000;;;7.900000;;
74644;SDS011;63163;55.630;37.594;2024-01-25T05:10:28;10.100000;;;7.200000;;
74644;SDS011;63163;55.630;37.594;2024-01-25T05:11:28;10.900000;;;7.600000;;
74644;SDS011;63163;55.630;37.594;2024-01-25T05:12:29;10.700000;;;7.300000;;
74644;SDS011;63163;55.630;37.594;2024-01-25T05:13:29;13.500000;;;9.000000;;
74644;SDS011;63163;55.630;37.594;2024-01-25T05:14:30;10.000000;;;7.200000;;
74644;SDS011;63163;55.630;37.594;2024-01-25T05:15:30;8.200000;;;5.500000;;
74644;SDS011;63163;55.630;37.594;2024-01-25T05:16:31;10.100000;;;7.200000;;